Time;durP1;ratioP1;P1;durP2;ratioP2;P2;SDS_P1;SDS_P2;PMS_P1;PMS_P2;Temp;Humidity;BMP_temperature;BMP_pressure;BME280_temperature;BME280_humidity;BME280_pressure;Samples;Min_cycle;Max_cycle;Signal;HPM_P1;HPM_P2
2021/06/23 00:01:55;;;;;;;4.07;3.77;;;27.70;52.30;;;;;;4962424;29;20413;-79
2021/06/23 00:04:21;;;;;;;5.20;4.00;;;27.70;52.40;;;;;;4946212;29;20203;-80
2021/06/23 00:06:47;;;;;;;4.60;4.20;;;27.70;52.40;;;;;;4978417;29;20462;-79
2021/06/23 00:09:13;;;;;;;4.73;4.23;;;27.70;52.30;;;;;;4962061;29;20210;-79
2021/06/23 00:11:46;;;;;;;4.40;4.00;;;27.70;52.20;;;;;;4963225;28;20278;-80
2021/06/23 00:14:14;;;;;;;4.47;4.10;;;27.70;52.20;;;;;;4963631;28;20410;-80
2021/06/23 00:47:46;;;;;;;5.50;5.00;;;27.60;52.20;;;;;;5005467;23;20475;-80
2021/06/23 00:50:15;;;;;;;4.80;4.30;;;27.60;52.10;;;;;;4963111;29;20478;-80
2021/06/23 00:52:41;;;;;;;4.63;4.23;;;27.60;52.20;;;;;;4962482;29;20433;-81
2021/06/23 00:55:08;;;;;;;5.20;4.80;;;27.60;52.20;;;;;;4979038;29;20437;-80
2021/06/23 00:57:37;;;;;;;5.07;4.67;;;27.70;52.20;;;;;;4962839;29;20422;-80
2021/06/23 01:00:07;;;;;;;5.87;5.37;;;27.70;52.20;;;;;;4981242;28;20429;-80
2021/06/23 01:02:34;;;;;;;4.73;4.33;;;27.70;52.20;;;;;;4982639;29;20402;-79
2021/06/23 01:05:03;;;;;;;5.87;5.37;;;27.70;52.20;;;;;;4950032;29;20442;-80
2021/06/23 01:07:29;;;;;;;5.20;4.80;;;27.70;52.10;;;;;;4982743;29;20425;-80
2021/06/23 01:09:56;;;;;;;5.90;5.40;;;27.70;52.10;;;;;;4966022;29;20536;-79
2021/06/23 01:12:27;;;;;;;6.40;5.80;;;27.70;52.10;;;;;;4982493;29;20408;-79
2021/06/23 01:14:58;;;;;;;5.57;5.07;;;27.70;52.10;;;;;;4966414;29;20533;-80
2021/06/23 01:17:34;;;;;;;5.30;4.90;;;27.70;52.10;;;;;;4965791;28;20477;-81
2021/06/23 01:20:05;;;;;;;6.10;5.60;;;27.70;52.10;;;;;;4982642;29;20428;-80
2021/06/23 01:22:32;;;;;;;5.30;4.83;;;27.70;52.10;;;;;;4982510;29;20482;-81
2021/06/23 01:25:01;;;;;;;5.97;5.47;;;27.70;52.10;;;;;;4965731;29;20434;-79
2021/06/23 01:27:27;;;;;;;6.03;5.20;;;27.60;51.90;;;;;;4965453;29;20428;-80
2021/06/23 01:29:53;;;;;;;5.73;5.27;;;27.60;51.90;;;;;;4965581;29;20461;-81
2021/06/23 01:32:24;;;;;;;6.13;5.53;;;27.60;51.90;;;;;;4981716;29;20170;-81
2021/06/23 01:34:50;;;;;;;6.10;5.60;;;27.60;52.10;;;;;;4965036;29;20166;-80
2021/06/23 01:37:18;;;;;;;5.77;5.37;;;27.50;52.10;;;;;;4982023;29;20433;-80
2021/06/23 01:39:47;;;;;;;5.93;5.43;;;27.50;52.00;;;;;;4965333;29;20175;-80
2021/06/23 01:42:13;;;;;;;6.03;5.53;;;27.60;52.20;;;;;;4965244;29;20422;-80
2021/06/23 01:44:39;;;;;;;6.37;5.77;;;27.50;52.10;;;;;;4965139;28;20417;-81
2021/06/23 01:47:08;;;;;;;6.37;5.87;;;27.60;52.10;;;;;;4981903;29;20195;-81
2021/06/23 01:49:34;;;;;;;5.47;4.97;;;27.60;52.10;;;;;;4965206;29;20533;-81
2021/06/23 01:52:02;;;;;;;7.27;6.70;;;27.50;52.10;;;;;;4981419;29;20450;-81
2021/06/23 01:54:28;;;;;;;6.37;5.87;;;27.50;52.00;;;;;;4981851;29;20540;-81
2021/06/23 01:56:56;;;;;;;5.80;5.30;;;27.50;52.00;;;;;;4964880;29;20441;-81
2021/06/23 01:59:30;;;;;;;6.57;6.07;;;27.50;52.00;;;;;;4981366;28;20163;-81
2021/06/23 02:02:12;;;;;;;6.20;5.70;;;27.50;52.00;;;;;;4964777;29;20418;-81
2021/06/23 02:05:03;;;;;;;6.50;5.60;;;27.50;52.00;;;;;;4981363;29;20394;-81
2021/06/23 02:08:10;;;;;;;6.60;6.10;;;27.50;52.00;;;;;;4964991;29;20406;-81
2021/06/23 02:10:50;;;;;;;6.50;6.00;;;27.50;52.00;;;;;;4954386;29;20517;-81
2021/06/23 02:13:56;;;;;;;6.40;5.70;;;27.50;52.10;;;;;;4981328;28;20405;-81
2021/06/23 02:16:30;;;;;;;6.67;6.07;;;27.50;52.00;;;;;;4964835;29;20421;-80
2021/06/23 02:19:05;;;;;;;6.53;5.93;;;27.50;52.10;;;;;;4981254;29;20382;-79
2021/06/23 02:21:33;;;;;;;6.27;5.77;;;27.50;52.00;;;;;;4964716;29;20420;-78
2021/06/23 02:24:02;;;;;;;6.90;6.33;;;27.40;52.00;;;;;;4964826;29;20406;-79
2021/06/23 02:26:28;;;;;;;6.97;6.13;;;27.50;52.10;;;;;;4963982;29;20422;-80
2021/06/23 02:28:58;;;;;;;7.00;6.40;;;27.40;52.50;;;;;;4964402;29;20417;-80
2021/06/23 02:31:28;;;;;;;7.70;7.00;;;27.40;52.00;;;;;;4964074;29;20457;-80
2021/06/23 02:34:00;;;;;;;7.23;6.53;;;27.40;52.00;;;;;;4964574;29;20390;-80
2021/06/23 02:36:29;;;;;;;7.20;6.60;;;27.30;52.00;;;;;;4964186;29;20406;-79
2021/06/23 02:38:55;;;;;;;6.80;6.30;;;27.30;52.20;;;;;;4980892;28;20422;-79
2021/06/23 02:41:21;;;;;;;7.60;6.90;;;27.30;52.20;;;;;;4964630;29;20421;-79
2021/06/23 02:43:47;;;;;;;7.40;6.70;;;27.30;52.20;;;;;;4963517;29;20190;-78
2021/06/23 02:46:14;;;;;;;6.83;6.20;;;27.30;52.20;;;;;;4980189;28;20414;-79
2021/06/23 02:48:40;;;;;;;6.87;6.37;;;27.30;52.20;;;;;;4961058;28;20423;-78
2021/06/23 02:51:18;;;;;;;7.57;6.90;;;27.30;52.20;;;;;;4960957;29;20455;-78
2021/06/23 02:53:46;;;;;;;7.03;6.43;;;27.20;52.30;;;;;;4960917;29;20398;-79
2021/06/23 02:56:13;;;;;;;7.90;7.10;;;27.20;52.20;;;;;;4943943;29;20490;-79
2021/06/23 02:58:42;;;;;;;7.57;6.90;;;27.20;52.30;;;;;;4960478;29;20413;-78
2021/06/23 03:01:09;;;;;;;6.90;6.40;;;27.20;52.30;;;;;;4943892;29;20426;-78
2021/06/23 03:03:34;;;;;;;7.10;6.57;;;27.20;52.30;;;;;;4960652;29;20411;-78
2021/06/23 03:06:04;;;;;;;7.60;6.73;;;27.10;52.30;;;;;;4943917;29;20457;-78
2021/06/23 03:08:32;;;;;;;6.87;6.27;;;27.10;52.30;;;;;;4959536;29;20175;-78
2021/06/23 03:10:58;;;;;;;7.33;6.63;;;27.20;52.40;;;;;;4943567;29;20497;-78
2021/06/23 03:13:23;;;;;;;7.20;6.50;;;27.20;52.40;;;;;;4943979;29;20451;-79
2021/06/23 03:15:49;;;;;;;7.83;6.70;;;27.10;52.40;;;;;;4943810;29;20430;-79
2021/06/23 03:18:22;;;;;;;8.03;7.40;;;27.10;52.40;;;;;;4960491;29;20422;-79
2021/06/23 03:20:48;;;;;;;7.17;6.57;;;27.10;52.40;;;;;;4960187;29;20411;-80
2021/06/23 03:23:18;;;;;;;7.87;7.07;;;27.10;52.60;;;;;;4943519;29;20410;-78
2021/06/23 03:25:44;;;;;;;7.40;6.80;;;27.10;52.60;;;;;;4943267;29;20461;-79
2021/06/23 03:28:11;;;;;;;7.00;6.50;;;27.10;52.60;;;;;;4943751;29;20455;-79
2021/06/23 03:30:37;;;;;;;10.40;7.43;;;27.10;52.50;;;;;;4959813;29;20560;-79
2021/06/23 03:33:04;;;;;;;7.60;6.90;;;27.00;52.40;;;;;;4943551;29;20423;-79
2021/06/23 03:35:30;;;;;;;7.23;6.70;;;27.10;52.40;;;;;;4943159;29;20403;-78
2021/06/23 03:37:56;;;;;;;7.33;6.73;;;27.00;52.50;;;;;;4959945;29;20459;-79
2021/06/23 03:40:23;;;;;;;6.77;6.20;;;27.00;52.50;;;;;;4943451;29;20419;-78
2021/06/23 03:42:49;;;;;;;7.63;6.87;;;27.00;52.60;;;;;;4943740;29;20414;-79
2021/06/23 03:45:19;;;;;;;8.10;7.30;;;27.00;52.60;;;;;;4943473;29;20423;-79
2021/06/23 03:47:45;;;;;;;6.90;6.40;;;27.00;52.60;;;;;;4943396;29;20427;-79
2021/06/23 03:50:12;;;;;;;8.30;7.63;;;26.90;52.60;;;;;;4959618;29;20494;-79
2021/06/23 03:52:40;;;;;;;8.00;7.30;;;27.00;52.60;;;;;;4924544;29;20463;-79
2021/06/23 03:55:08;;;;;;;7.80;7.10;;;26.90;52.60;;;;;;4924235;29;20420;-79
2021/06/23 03:57:34;;;;;;;8.03;7.43;;;27.00;52.70;;;;;;4924044;29;20415;-79
2021/06/23 04:00:01;;;;;;;8.10;7.30;;;26.90;52.60;;;;;;4924194;29;20427;-79
2021/06/23 04:02:30;;;;;;;7.30;6.70;;;26.90;52.50;;;;;;4924324;29;20403;-79
2021/06/23 04:04:55;;;;;;;7.77;7.07;;;26.90;52.50;;;;;;4924226;29;20412;-79
2021/06/23 04:07:21;;;;;;;7.87;7.13;;;26.90;52.60;;;;;;4924527;29;20448;-78
2021/06/23 04:09:47;;;;;;;7.70;7.00;;;26.90;52.60;;;;;;4924511;29;20227;-78
2021/06/23 04:12:16;;;;;;;7.83;7.23;;;26.90;52.70;;;;;;4939633;29;20520;-79
2021/06/23 04:18:15;;;;;;;7.10;6.50;;;26.90;52.70;;;;;;4836259;29;20518;-78
2021/06/23 04:20:43;;;;;;;7.50;6.80;;;26.90;52.70;;;;;;4850459;29;20433;-80
2021/06/23 04:23:10;;;;;;;8.13;7.43;;;26.90;52.80;;;;;;4923553;29;20907;-79
2021/06/23 04:25:39;;;;;;;8.07;7.27;;;26.90;52.80;;;;;;4923839;29;20426;-79
2021/06/23 04:28:13;;;;;;;8.80;8.10;;;26.90;52.80;;;;;;4923734;29;20412;-78
2021/06/23 04:30:39;;;;;;;7.57;6.97;;;26.90;52.80;;;;;;4939596;29;20543;-79
2021/06/23 04:33:05;;;;;;;8.10;7.40;;;26.90;52.80;;;;;;4923425;29;20420;-78
2021/06/23 04:35:31;;;;;;;8.30;7.60;;;26.90;52.70;;;;;;4926531;29;20424;-78
2021/06/23 04:37:57;;;;;;;7.40;6.70;;;26.90;53.30;;;;;;4943957;29;20163;-78
2021/06/23 04:40:23;;;;;;;7.90;7.20;;;26.90;52.80;;;;;;4926372;29;20408;-78
2021/06/23 04:42:49;;;;;;;7.70;7.00;;;26.90;52.80;;;;;;4943653;29;20207;-79
2021/06/23 04:45:15;;;;;;;7.70;6.97;;;26.90;52.80;;;;;;4943915;29;20419;-79
2021/06/23 04:47:41;;;;;;;8.57;7.77;;;26.90;52.80;;;;;;4943849;29;20175;-79
2021/06/23 04:50:09;;;;;;;8.23;7.53;;;26.80;52.80;;;;;;4927343;29;20565;-79
2021/06/23 04:52:36;;;;;;;7.90;7.20;;;26.90;52.90;;;;;;4927379;29;20412;-79
2021/06/23 04:55:03;;;;;;;8.10;7.30;;;26.80;52.80;;;;;;4927282;29;20427;-79
2021/06/23 04:57:29;;;;;;;8.70;7.80;;;26.80;52.80;;;;;;4926644;29;20416;-78
2021/06/23 04:59:58;;;;;;;9.10;7.63;;;26.80;52.80;;;;;;4943060;29;20475;-79
2021/06/23 05:02:24;;;;;;;8.23;7.63;;;26.80;52.90;;;;;;4926842;29;20459;-78
2021/06/23 05:04:50;;;;;;;7.80;7.10;;;26.80;52.90;;;;;;4942722;29;20417;-78
2021/06/23 05:07:19;;;;;;;7.53;6.87;;;26.80;52.90;;;;;;4927254;29;20180;-79
2021/06/23 05:09:45;;;;;;;7.17;6.57;;;26.90;53.00;;;;;;4926829;29;20474;-78
2021/06/23 05:12:11;;;;;;;7.43;6.83;;;26.80;52.90;;;;;;4925017;29;20462;-77
2021/06/23 05:14:38;;;;;;;8.00;7.20;;;26.90;53.00;;;;;;4936516;29;20427;-80
2021/06/23 05:17:05;;;;;;;8.13;7.43;;;26.90;53.00;;;;;;4919235;29;20424;-80
2021/06/23 05:19:31;;;;;;;7.77;6.77;;;26.90;53.00;;;;;;4937245;29;20423;-78
2021/06/23 05:22:00;;;;;;;7.50;6.90;;;26.80;53.00;;;;;;4919353;29;20771;-79
2021/06/23 05:24:29;;;;;;;7.87;7.27;;;26.80;53.00;;;;;;4936019;29;20204;-80
2021/06/23 05:26:55;;;;;;;8.40;7.43;;;26.80;53.10;;;;;;4925207;29;20419;-80
2021/06/23 05:29:21;;;;;;;7.67;7.00;;;26.90;53.10;;;;;;4926323;29;20424;-80
2021/06/23 05:31:47;;;;;;;7.80;7.20;;;26.80;53.10;;;;;;4941383;29;20191;-80
2021/06/23 05:34:15;;;;;;;7.03;6.40;;;26.80;53.10;;;;;;4945692;29;20418;-81
2021/06/23 05:36:43;;;;;;;8.13;7.33;;;26.80;53.10;;;;;;4961252;29;20243;-79
2021/06/23 05:39:09;;;;;;;8.27;7.57;;;26.80;53.20;;;;;;4945376;29;20415;-80
2021/06/23 05:41:35;;;;;;;8.40;7.60;;;26.80;53.10;;;;;;4945333;29;20445;-80
2021/06/23 05:44:01;;;;;;;7.50;6.80;;;26.80;53.20;;;;;;4945163;29;20183;-79
2021/06/23 05:46:28;;;;;;;9.30;7.10;;;26.80;53.10;;;;;;4943812;29;20205;-79
2021/06/23 05:48:57;;;;;;;7.20;6.70;;;26.80;53.20;;;;;;4962098;29;20423;-79
2021/06/23 05:51:25;;;;;;;8.17;7.47;;;26.80;53.20;;;;;;4961119;29;20536;-82
2021/06/23 05:53:54;;;;;;;7.20;6.50;;;26.80;53.20;;;;;;4944014;29;20425;-79
2021/06/23 05:56:23;;;;;;;7.73;7.03;;;26.80;53.20;;;;;;4944634;29;20418;-79
2021/06/23 05:58:51;;;;;;;7.30;6.63;;;26.80;53.20;;;;;;4961392;29;20402;-80
2021/06/23 06:01:19;;;;;;;7.40;6.80;;;26.80;53.20;;;;;;4961338;29;20406;-80
2021/06/23 06:03:47;;;;;;;9.63;7.13;;;26.80;53.20;;;;;;4961592;29;20411;-80
2021/06/23 06:06:18;;;;;;;8.43;7.63;;;26.80;53.20;;;;;;4961255;29;20390;-81
2021/06/23 06:08:44;;;;;;;7.93;7.27;;;26.80;53.20;;;;;;4959332;29;20478;-81
2021/06/23 06:11:10;;;;;;;7.40;6.70;;;26.80;53.20;;;;;;4959192;29;20471;-81
2021/06/23 06:13:38;;;;;;;8.13;7.37;;;26.80;53.20;;;;;;4958560;29;20178;-81
2021/06/23 06:16:04;;;;;;;11.30;6.27;;;26.80;53.20;;;;;;4942827;29;20399;-81
2021/06/23 06:18:34;;;;;;;8.40;6.67;;;26.80;53.30;;;;;;4942855;29;20431;-80
2021/06/23 06:21:03;;;;;;;7.40;6.80;;;26.80;53.20;;;;;;4942555;29;20450;-80
2021/06/23 06:23:29;;;;;;;7.00;6.40;;;26.90;53.30;;;;;;4942985;29;20438;-80
2021/06/23 06:25:56;;;;;;;7.80;7.00;;;26.80;53.30;;;;;;4943256;29;20455;-79
2021/06/23 06:28:26;;;;;;;7.33;6.73;;;26.90;53.30;;;;;;4944606;29;20439;-84
2021/06/23 06:30:57;;;;;;;7.47;6.73;;;26.90;53.40;;;;;;4912625;29;20502;-84
2021/06/23 06:33:31;;;;;;;7.80;7.20;;;26.90;53.40;;;;;;4939628;29;20431;-86
2021/06/23 06:35:59;;;;;;;7.03;6.50;;;26.80;53.40;;;;;;4940575;29;20418;-83
2021/06/23 06:38:26;;;;;;;7.40;6.80;;;26.80;53.40;;;;;;4939410;29;20415;-83
2021/06/23 06:40:53;;;;;;;7.60;6.87;;;26.90;53.30;;;;;;4941867;29;20427;-81
2021/06/23 06:43:23;;;;;;;7.60;6.90;;;26.90;53.20;;;;;;4943000;29;20435;-80
2021/06/23 06:45:50;;;;;;;9.70;6.80;;;27.00;53.70;;;;;;4943620;29;20423;-82
2021/06/23 06:48:18;;;;;;;6.70;6.00;;;27.00;53.10;;;;;;4943404;29;20473;-79
2021/06/23 06:50:44;;;;;;;7.07;6.47;;;27.00;53.00;;;;;;4959874;29;20462;-79
2021/06/23 06:53:12;;;;;;;7.10;6.43;;;27.10;52.90;;;;;;4942887;29;20478;-79
2021/06/23 06:55:38;;;;;;;6.90;6.20;;;27.10;52.90;;;;;;4959657;29;20163;-79
2021/06/23 06:58:04;;;;;;;6.90;6.30;;;27.10;52.80;;;;;;4958392;29;20419;-78
2021/06/23 07:00:33;;;;;;;6.40;5.80;;;27.20;52.80;;;;;;4959018;29;20443;-79
2021/06/23 07:02:58;;;;;;;7.37;6.53;;;27.20;52.70;;;;;;4942612;29;20423;-80
2021/06/23 07:05:25;;;;;;;6.87;6.23;;;27.30;52.70;;;;;;4958352;29;20430;-81
2021/06/23 07:07:51;;;;;;;6.77;6.17;;;27.30;52.70;;;;;;4941754;29;20245;-79
2021/06/23 07:10:18;;;;;;;6.87;6.00;;;27.30;52.70;;;;;;4941242;29;20475;-79
2021/06/23 07:12:43;;;;;;;7.40;6.50;;;27.30;52.70;;;;;;4954160;29;20446;-80
2021/06/23 07:15:11;;;;;;;6.97;6.37;;;27.40;52.70;;;;;;4938671;29;20491;-80
2021/06/23 07:17:36;;;;;;;6.80;6.20;;;27.40;52.70;;;;;;4941391;29;20435;-80
2021/06/23 07:20:04;;;;;;;6.87;6.27;;;27.40;52.60;;;;;;4941323;29;20454;-81
2021/06/23 07:22:30;;;;;;;6.03;5.53;;;27.40;52.60;;;;;;4957115;29;20246;-80
2021/06/23 07:24:58;;;;;;;6.10;5.53;;;27.40;52.60;;;;;;4957580;29;20422;-80
2021/06/23 07:27:25;;;;;;;6.57;5.97;;;27.50;52.60;;;;;;4940730;29;20194;-79
2021/06/23 07:29:53;;;;;;;6.63;6.03;;;27.50;52.60;;;;;;4958278;29;20492;-79
2021/06/23 07:32:25;;;;;;;6.40;5.80;;;27.50;52.60;;;;;;4958370;29;20431;-79
2021/06/23 07:37:17;;;;;;;6.10;5.60;;;27.50;52.60;;;;;;4958846;29;20483;-79
2021/06/23 07:39:43;;;;;;;6.03;5.47;;;27.50;52.50;;;;;;4958116;29;20246;-79
2021/06/23 07:42:10;;;;;;;6.10;5.50;;;27.60;52.50;;;;;;4958057;29;20419;-79
2021/06/23 07:44:41;;;;;;;6.60;6.07;;;27.60;52.60;;;;;;4958639;29;20418;-79
2021/06/23 07:47:12;;;;;;;6.30;5.80;;;27.60;52.50;;;;;;4957460;29;20470;-79
2021/06/23 07:49:40;;;;;;;5.83;5.33;;;27.60;52.50;;;;;;4941337;29;20462;-79
2021/06/23 07:54:48;;;;;;;6.73;6.03;;;27.60;52.50;;;;;;4958986;29;20423;-79
2021/06/23 08:08:12;;;;;;;7.47;6.30;;;27.70;52.70;;;;;;4939017;29;20473;-80
2021/06/23 08:13:08;;;;;;;5.90;5.40;;;27.60;52.60;;;;;;4958187;29;20415;-79
2021/06/23 08:15:42;;;;;;;6.90;6.30;;;27.70;52.70;;;;;;4942881;29;20443;-79
2021/06/23 08:18:14;;;;;;;6.27;5.60;;;27.70;52.70;;;;;;4942673;29;20418;-80
2021/06/23 08:20:40;;;;;;;6.73;6.13;;;27.70;52.70;;;;;;4942877;29;20411;-80
2021/06/23 08:23:06;;;;;;;7.10;6.50;;;27.70;52.70;;;;;;4941591;29;20450;-79
2021/06/23 08:25:33;;;;;;;6.53;5.97;;;27.70;52.70;;;;;;4942829;29;20427;-80
2021/06/23 08:27:58;;;;;;;7.20;6.50;;;27.70;52.70;;;;;;4942543;29;20423;-80
2021/06/23 08:30:25;;;;;;;8.40;6.50;;;27.80;52.80;;;;;;4942467;29;20457;-80
2021/06/23 08:32:51;;;;;;;5.80;5.30;;;27.80;52.80;;;;;;4958153;29;20190;-79
2021/06/23 08:35:17;;;;;;;7.00;6.30;;;27.80;52.70;;;;;;4941813;29;20409;-79
2021/06/23 08:37:44;;;;;;;6.70;6.10;;;27.80;52.70;;;;;;4942172;29;20433;-79
2021/06/23 08:40:12;;;;;;;6.07;5.47;;;27.80;52.70;;;;;;4949479;29;20496;-79
2021/06/23 08:42:41;;;;;;;6.30;5.70;;;27.80;52.70;;;;;;4958490;29;20411;-79
2021/06/23 08:45:13;;;;;;;6.30;5.70;;;27.80;52.70;;;;;;4942227;29;20426;-80
2021/06/23 08:51:14;;;;;;;7.17;6.13;;;27.90;52.70;;;;;;4958974;29;20458;-79
2021/06/23 08:53:40;;;;;;;7.27;6.67;;;27.80;52.70;;;;;;4959609;29;20414;-80
2021/06/23 08:56:07;;;;;;;7.37;6.70;;;27.80;52.70;;;;;;4942604;29;20431;-80
2021/06/23 08:58:34;;;;;;;7.03;6.43;;;27.80;52.80;;;;;;4943045;29;20168;-81
2021/06/23 09:01:00;;;;;;;7.30;6.60;;;27.90;52.80;;;;;;4957779;29;20426;-80
2021/06/23 09:03:29;;;;;;;7.17;6.47;;;27.80;53.00;;;;;;4941540;29;20423;-80
2021/06/23 09:05:56;;;;;;;7.13;6.43;;;27.80;52.90;;;;;;4959042;29;20187;-81
2021/06/23 09:08:36;;;;;;;8.80;7.57;;;27.90;52.90;;;;;;5081519;23;20481;-78
2021/06/23 09:29:04;;;;;;;11.90;10.60;;;27.80;53.30;;;;;;5036009;23;20488;-79
2021/06/23 09:32:05;;;;;;;11.97;10.57;;;27.70;53.30;;;;;;4944811;29;20468;-80
2021/06/23 09:34:45;;;;;;;10.77;9.67;;;27.80;53.30;;;;;;4953263;29;20431;-80
2021/06/23 09:37:39;;;;;;;11.17;10.03;;;27.80;53.30;;;;;;4940888;29;20415;-80
2021/06/23 09:40:28;;;;;;;12.10;10.03;;;27.80;53.30;;;;;;4952706;29;20426;-82
2021/06/23 09:43:04;;;;;;;11.10;10.00;;;27.70;53.30;;;;;;4939459;29;20491;-81
2021/06/23 09:45:31;;;;;;;15.63;10.47;;;27.70;53.30;;;;;;4930428;29;20423;-81
2021/06/23 09:48:06;;;;;;;10.57;9.57;;;27.70;53.60;;;;;;4938078;29;20423;-81
2021/06/23 09:50:34;;;;;;;11.83;10.70;;;27.70;53.60;;;;;;4951107;29;20447;-81
2021/06/23 09:53:09;;;;;;;11.53;10.53;;;27.70;53.60;;;;;;4955387;29;20439;-80
2021/06/23 09:55:47;;;;;;;11.30;10.20;;;27.70;53.70;;;;;;4937890;29;20443;-82
2021/06/23 09:58:20;;;;;;;13.77;12.13;;;27.70;53.70;;;;;;4946057;29;20412;-81
2021/06/23 10:01:11;;;;;;;12.07;10.87;;;27.50;53.80;;;;;;4923038;29;20424;-81
2021/06/23 10:04:05;;;;;;;11.50;9.93;;;27.50;54.10;;;;;;4923904;29;20418;-81
2021/06/23 10:06:45;;;;;;;13.40;12.00;;;27.50;54.00;;;;;;4923106;29;20435;-81
2021/06/23 10:09:23;;;;;;;13.10;11.73;;;27.50;54.10;;;;;;4924389;29;20455;-81
2021/06/23 10:11:51;;;;;;;12.10;10.90;;;27.50;54.30;;;;;;4939780;29;20404;-81
2021/06/23 10:14:21;;;;;;;12.90;11.40;;;27.40;54.30;;;;;;4922528;29;20432;-80
2021/06/23 10:16:52;;;;;;;12.60;11.30;;;27.40;54.30;;;;;;4939166;29;20428;-81
2021/06/23 10:19:19;;;;;;;14.00;11.97;;;27.40;54.20;;;;;;4922454;29;20480;-81
2021/06/23 10:21:46;;;;;;;12.23;10.93;;;27.40;54.20;;;;;;4921738;29;20412;-81
2021/06/23 10:24:14;;;;;;;12.43;11.13;;;27.40;54.40;;;;;;4922292;29;20416;-81
2021/06/23 10:26:46;;;;;;;13.43;10.63;;;27.30;54.40;;;;;;4922357;29;20440;-81
2021/06/23 10:29:15;;;;;;;14.80;11.30;;;27.40;54.50;;;;;;4922791;29;20466;-81
2021/06/23 10:31:42;;;;;;;11.00;9.90;;;27.30;54.60;;;;;;4922591;29;20428;-81
2021/06/23 10:34:09;;;;;;;12.47;11.17;;;27.20;54.70;;;;;;4939432;29;20419;-81
2021/06/23 10:36:36;;;;;;;11.33;10.20;;;27.20;54.70;;;;;;4922287;29;20439;-81
2021/06/23 10:39:05;;;;;;;13.07;11.50;;;27.10;54.80;;;;;;4921667;29;20424;-81
2021/06/23 10:41:40;;;;;;;11.00;9.93;;;27.20;54.90;;;;;;4922170;29;20447;-81
2021/06/23 10:44:20;;;;;;;11.70;10.60;;;27.10;55.00;;;;;;4920750;29;20426;-81
2021/06/23 10:46:48;;;;;;;11.53;10.43;;;27.10;55.10;;;;;;4922274;29;20400;-81
2021/06/23 10:49:45;;;;;;;11.40;10.27;;;27.10;55.10;;;;;;4938747;29;20413;-81
2021/06/23 10:52:21;;;;;;;12.63;10.00;;;27.10;55.20;;;;;;4938256;29;20404;-81
2021/06/23 10:54:55;;;;;;;11.33;10.20;;;27.10;55.30;;;;;;4958416;29;20901;-82
2021/06/23 10:57:28;;;;;;;12.37;11.07;;;27.10;55.40;;;;;;4939412;29;20414;-81
2021/06/23 10:59:58;;;;;;;11.40;10.30;;;27.10;55.50;;;;;;4940761;29;20418;-85
2021/06/23 11:02:37;;;;;;;11.30;9.80;;;27.00;55.40;;;;;;4940867;29;20414;-81
2021/06/23 11:05:05;;;;;;;10.87;9.63;;;27.00;55.30;;;;;;4941112;29;20425;-82
2021/06/23 11:07:42;;;;;;;12.23;11.03;;;26.90;55.50;;;;;;4940768;29;20486;-82
2021/06/23 11:10:36;;;;;;;11.20;10.10;;;27.00;55.50;;;;;;4934617;29;20443;-82
2021/06/23 11:13:17;;;;;;;11.77;10.77;;;26.90;55.50;;;;;;4846936;29;20549;-81
2021/06/23 11:15:45;;;;;;;10.27;9.27;;;26.90;55.70;;;;;;4846968;29;20447;-81
2021/06/23 11:18:26;;;;;;;11.77;10.63;;;26.90;55.90;;;;;;4835275;29;20954;-81
2021/06/23 11:20:55;;;;;;;11.70;10.53;;;26.90;55.80;;;;;;4846782;29;20477;-81
2021/06/23 11:23:51;;;;;;;11.07;10.07;;;26.90;55.90;;;;;;4862979;29;20424;-81
2021/06/23 11:26:21;;;;;;;10.50;9.50;;;26.90;55.80;;;;;;4848255;29;20435;-82
2021/06/23 11:35:32;;;;;;;10.70;8.60;;;26.80;55.80;;;;;;4865801;29;20389;-81
2021/06/23 11:37:59;;;;;;;14.03;11.70;;;26.80;55.90;;;;;;4850826;29;20423;-81
2021/06/23 11:40:26;;;;;;;10.37;9.37;;;26.80;55.90;;;;;;4850651;29;20182;-81
2021/06/23 11:42:56;;;;;;;10.13;9.03;;;26.80;55.70;;;;;;4850309;29;20443;-81
2021/06/23 11:45:25;;;;;;;10.87;9.77;;;26.80;55.90;;;;;;4849390;29;20499;-81
2021/06/23 11:47:55;;;;;;;9.20;8.30;;;26.80;55.80;;;;;;4865450;29;20438;-80
2021/06/23 11:50:24;;;;;;;9.40;8.53;;;26.80;55.80;;;;;;4911434;29;20499;-81
2021/06/23 11:52:57;;;;;;;9.60;8.70;;;26.80;55.80;;;;;;4941361;29;20423;-80
2021/06/23 11:55:32;;;;;;;9.83;8.93;;;26.90;56.20;;;;;;4941538;29;20392;-80
2021/06/23 11:58:01;;;;;;;10.40;9.00;;;26.90;56.20;;;;;;4923837;29;20411;-80
2021/06/23 12:00:30;;;;;;;9.17;8.27;;;26.80;56.00;;;;;;4924822;29;20447;-80
2021/06/23 12:03:19;;;;;;;9.93;8.90;;;26.90;56.10;;;;;;4905858;29;20432;-80
2021/06/23 12:05:48;;;;;;;10.17;9.07;;;26.80;56.00;;;;;;4924337;29;20427;-80
2021/06/23 12:08:19;;;;;;;10.13;9.20;;;26.80;56.00;;;;;;4940804;29;20416;-81
2021/06/23 12:10:53;;;;;;;9.53;8.63;;;26.90;56.00;;;;;;4940900;29;20440;-81
2021/06/23 12:13:28;;;;;;;9.30;8.40;;;26.90;56.00;;;;;;4925435;29;20402;-81
2021/06/23 12:15:57;;;;;;;10.17;9.17;;;26.80;56.00;;;;;;4940068;29;20397;-82
2021/06/23 12:18:23;;;;;;;10.27;9.20;;;26.80;56.00;;;;;;4923256;29;20412;-80
2021/06/23 12:20:50;;;;;;;8.97;8.20;;;26.80;56.10;;;;;;4923294;29;20447;-80
2021/06/23 12:23:19;;;;;;;9.87;8.87;;;26.80;56.10;;;;;;4909112;29;20207;-83
2021/06/23 12:25:48;;;;;;;9.50;8.60;;;26.90;56.00;;;;;;4940995;29;20384;-81
2021/06/23 12:28:18;;;;;;;8.50;7.70;;;26.90;56.00;;;;;;4941631;29;20432;-82
2021/06/23 12:30:45;;;;;;;10.47;9.33;;;26.90;55.90;;;;;;4925574;29;20479;-81
2021/06/23 12:33:14;;;;;;;9.53;8.10;;;26.90;56.10;;;;;;4925572;29;20423;-81
2021/06/23 12:35:45;;;;;;;8.57;7.77;;;26.90;55.90;;;;;;4921551;29;20436;-81
2021/06/23 12:38:17;;;;;;;9.10;8.00;;;26.90;55.90;;;;;;4925553;29;20416;-80
2021/06/23 12:40:50;;;;;;;9.50;8.50;;;26.90;55.60;;;;;;4941825;29;20422;-81
2021/06/23 12:43:19;;;;;;;9.07;8.17;;;26.90;55.90;;;;;;4924031;29;20443;-81
2021/06/23 12:45:50;;;;;;;8.80;7.87;;;26.90;55.80;;;;;;4927176;29;20435;-82
2021/06/23 12:48:17;;;;;;;10.50;8.77;;;26.90;55.90;;;;;;4954519;29;20921;-82
2021/06/23 12:50:47;;;;;;;9.17;8.27;;;26.90;56.00;;;;;;4953773;29;20450;-82
2021/06/23 12:53:13;;;;;;;9.57;8.77;;;26.90;56.10;;;;;;4937310;29;20422;-81
2021/06/23 12:59:01;;;;;;;8.53;7.63;;;27.00;55.90;;;;;;4938423;29;20167;-81
2021/06/23 13:01:27;;;;;;;9.40;8.47;;;26.90;56.00;;;;;;4938495;29;20435;-81
2021/06/23 13:03:54;;;;;;;8.83;7.93;;;26.90;55.90;;;;;;4921660;29;20423;-82
2021/06/23 13:06:23;;;;;;;8.90;8.00;;;27.00;56.00;;;;;;4921599;29;20427;-81
2021/06/23 13:08:49;;;;;;;9.00;7.67;;;27.00;56.00;;;;;;4921451;29;20426;-81
2021/06/23 13:11:15;;;;;;;8.30;7.50;;;27.00;56.00;;;;;;4921587;29;20542;-81
2021/06/23 13:13:45;;;;;;;8.70;7.87;;;26.90;55.80;;;;;;4921027;29;20234;-81
2021/06/23 13:16:15;;;;;;;8.27;6.87;;;26.90;55.70;;;;;;4938313;29;20418;-81
2021/06/23 13:18:41;;;;;;;11.00;7.77;;;27.00;55.80;;;;;;4921580;29;20501;-82
2021/06/23 13:21:12;;;;;;;8.47;7.67;;;27.00;55.70;;;;;;4921677;29;20479;-82
2021/06/23 13:23:37;;;;;;;7.93;6.47;;;27.00;55.80;;;;;;4921447;29;20503;-82
2021/06/23 13:26:12;;;;;;;8.57;7.77;;;27.00;55.70;;;;;;4937863;29;20415;-82
2021/06/23 13:28:39;;;;;;;8.23;7.53;;;27.00;55.70;;;;;;4927827;29;20696;-80
2021/06/23 13:31:06;;;;;;;8.00;7.23;;;27.00;55.70;;;;;;4938494;29;20455;-81
2021/06/23 13:33:33;;;;;;;7.53;6.83;;;27.00;55.80;;;;;;4939752;29;20454;-81
2021/06/23 13:36:02;;;;;;;7.33;6.50;;;27.00;55.80;;;;;;4942261;29;20426;-81
2021/06/23 13:38:34;;;;;;;8.77;7.87;;;27.10;55.90;;;;;;4941358;29;20446;-81
2021/06/23 13:41:00;;;;;;;7.63;6.83;;;27.00;55.60;;;;;;4940388;29;20466;-80
2021/06/23 13:43:27;;;;;;;8.43;7.03;;;27.00;55.50;;;;;;4940034;29;20429;-81
2021/06/23 13:45:53;;;;;;;7.87;7.17;;;27.00;55.60;;;;;;4957444;29;20419;-81
2021/06/23 13:48:21;;;;;;;8.00;7.23;;;27.00;55.70;;;;;;4939975;29;20450;-81
2021/06/23 13:50:51;;;;;;;8.23;7.40;;;27.00;55.70;;;;;;4940140;29;20442;-81
2021/06/23 13:53:18;;;;;;;7.37;6.67;;;27.00;55.60;;;;;;4924377;29;20491;-81
2021/06/23 13:55:50;;;;;;;7.40;6.73;;;27.10;55.70;;;;;;4931469;29;20434;-82
2021/06/23 13:58:16;;;;;;;7.60;6.90;;;27.10;55.70;;;;;;4940378;29;20419;-80
2021/06/23 14:00:44;;;;;;;10.60;7.60;;;27.00;55.60;;;;;;4940211;29;20443;-81
2021/06/23 14:03:10;;;;;;;10.03;7.03;;;27.00;55.60;;;;;;4956801;29;20238;-80
2021/06/23 14:05:37;;;;;;;6.90;6.20;;;27.00;55.60;;;;;;4957128;29;20421;-81
2021/06/23 14:08:10;;;;;;;7.47;6.77;;;27.00;55.60;;;;;;4938551;29;20431;-81
2021/06/23 14:10:41;;;;;;;8.33;7.20;;;27.00;55.60;;;;;;4939278;29;20526;-81
2021/06/23 14:13:07;;;;;;;6.40;5.80;;;27.00;55.60;;;;;;4939763;29;20415;-81
2021/06/23 14:15:33;;;;;;;7.20;6.50;;;27.10;55.70;;;;;;4939717;29;20429;-81
2021/06/23 14:17:59;;;;;;;8.70;6.53;;;27.00;55.50;;;;;;4939251;29;20187;-81
2021/06/23 14:20:26;;;;;;;7.53;6.60;;;27.00;55.40;;;;;;4939426;29;20442;-81